createdAt,value
2022-10-09T00:01:50.393Z,86.71
2022-10-09T00:04:20.109Z,87.05
2022-10-09T00:06:52.524Z,87.73
2022-10-09T00:09:22.363Z,87.54
2022-10-09T00:11:52.033Z,88.55
2022-10-09T00:14:21.758Z,88.33
2022-10-09T00:16:51.520Z,89.72
2022-10-09T00:19:21.342Z,88.24
2022-10-09T00:21:53.652Z,87.89
2022-10-09T00:24:23.440Z,87.15
2022-10-09T00:26:53.156Z,87.59
2022-10-09T00:29:22.857Z,88.16
2022-10-09T00:31:52.662Z,88.79
2022-10-09T00:34:22.391Z,90.01
2022-10-09T00:36:54.692Z,89.71
2022-10-09T00:39:24.350Z,89.51
2022-10-09T00:41:54.114Z,87.98
2022-10-09T00:44:50.406Z,86.71
2022-10-09T00:47:23.750Z,86.53
2022-10-09T00:49:56.816Z,86.44
2022-10-09T00:52:29.922Z,88.21
2022-10-09T00:55:01.005Z,87.06
2022-10-09T00:57:31.028Z,86.95
2022-10-09T01:00:01.943Z,85.86
2022-10-09T01:02:31.696Z,86.41
2022-10-09T01:05:02.117Z,86.43
2022-10-09T01:07:41.462Z,86.63
2022-10-09T01:10:22.380Z,87.61
2022-10-09T01:13:04.708Z,88.60
2022-10-09T01:15:38.906Z,88.21
2022-10-09T01:18:13.936Z,85.98
2022-10-09T01:20:49.692Z,88.40
2022-10-09T01:23:50.571Z,88.99
2022-10-09T01:26:59.040Z,88.50
2022-10-09T01:29:33.544Z,86.14
2022-10-09T01:32:04.628Z,87.14
2022-10-09T01:34:36.048Z,86.53
2022-10-09T01:37:06.564Z,88.50
2022-10-09T01:39:38.501Z,90.86
2022-10-09T01:42:12.458Z,90.56
2022-10-09T01:44:42.225Z,91.42
2022-10-09T01:47:17.660Z,90.63
2022-10-09T01:49:56.046Z,88.85
2022-10-09T01:52:41.329Z,89.84
2022-10-09T01:55:34.440Z,88.43
2022-10-09T01:58:13.366Z,88.26
2022-10-09T02:00:54.574Z,87.08
2022-10-09T02:03:26.552Z,86.73
2022-10-09T02:05:58.907Z,86.25
2022-10-09T02:08:29.099Z,85.66
2022-10-09T02:11:01.278Z,87.13
2022-10-09T02:13:35.128Z,87.58
2022-10-09T02:16:12.386Z,87.95
2022-10-09T02:18:46.094Z,88.09
2022-10-09T02:21:19.601Z,88.35
2022-10-09T02:23:51.925Z,88.00
2022-10-09T02:26:22.498Z,88.23
2022-10-09T02:28:55.121Z,87.44
2022-10-09T02:31:29.149Z,87.25
2022-10-09T02:34:00.176Z,87.16
2022-10-09T02:36:31.232Z,86.01
2022-10-09T02:39:01.366Z,87.50
2022-10-09T02:41:31.632Z,88.67
2022-10-09T02:44:04.694Z,87.64
2022-10-09T02:46:34.665Z,87.55
2022-10-09T02:49:04.571Z,88.16
2022-10-09T02:51:34.357Z,89.95
2022-10-09T02:54:04.071Z,87.68
2022-10-09T02:56:38.541Z,87.31
2022-10-09T02:59:11.826Z,88.17
2022-10-09T03:01:41.722Z,87.43
2022-10-09T03:04:11.492Z,87.70
2022-10-09T03:06:41.171Z,87.08
2022-10-09T03:09:10.893Z,87.04
2022-10-09T03:11:40.606Z,87.31
2022-10-09T03:14:13.059Z,86.82
2022-10-09T03:16:42.745Z,86.14
2022-10-09T03:19:12.542Z,85.95
2022-10-09T03:21:42.206Z,86.26
2022-10-09T03:24:12.966Z,85.99
2022-10-09T03:26:42.665Z,85.94
2022-10-09T03:29:14.968Z,85.28
2022-10-09T03:31:52.572Z,84.70
2022-10-09T03:34:22.965Z,85.31
2022-10-09T03:36:53.108Z,85.57
2022-10-09T03:39:22.826Z,85.69
2022-10-09T03:41:52.556Z,84.95
2022-10-09T03:44:24.898Z,86.64
2022-10-09T03:46:55.423Z,86.93
2022-10-09T03:49:25.229Z,86.33
2022-10-09T03:51:54.910Z,86.27
2022-10-09T03:54:24.673Z,86.43
2022-10-09T03:56:57.508Z,86.37
2022-10-09T03:59:29.856Z,86.39
2022-10-09T04:01:59.551Z,86.14
2022-10-09T04:04:29.773Z,85.84
2022-10-09T04:06:59.440Z,84.61
2022-10-09T04:09:29.097Z,86.65
2022-10-09T04:11:58.865Z,86.80
2022-10-09T04:14:31.114Z,85.85
2022-10-09T04:17:00.801Z,86.52
2022-10-09T04:19:30.472Z,86.83
2022-10-09T04:22:00.212Z,86.80
2022-10-09T04:24:29.859Z,87.49
2022-10-09T04:26:59.766Z,86.40
2022-10-09T04:29:31.994Z,86.13
2022-10-09T04:32:01.739Z,85.21
2022-10-09T04:34:31.377Z,86.04
2022-10-09T04:37:01.106Z,87.57
2022-10-09T04:39:30.761Z,86.84
2022-10-09T04:42:00.455Z,86.27
2022-10-09T04:44:32.753Z,85.20
2022-10-09T04:47:02.433Z,84.51
2022-10-09T04:49:32.176Z,84.31
2022-10-09T04:52:02.234Z,83.93
2022-10-09T04:54:31.909Z,83.84
2022-10-09T04:57:01.597Z,84.03
2022-10-09T04:59:34.085Z,84.03
2022-10-09T05:02:03.881Z,83.54
2022-10-09T05:04:33.709Z,83.28
2022-10-09T05:07:03.436Z,83.31
2022-10-09T05:09:33.205Z,82.98
2022-10-09T05:12:02.901Z,83.28
2022-10-09T05:14:35.258Z,83.36
2022-10-09T05:17:14.488Z,83.03
2022-10-09T05:19:44.612Z,83.12
2022-10-09T05:22:14.514Z,82.88
2022-10-09T05:24:44.150Z,82.87
2022-10-09T05:27:13.833Z,83.54
2022-10-09T05:29:46.275Z,83.38
2022-10-09T05:32:15.961Z,83.16
2022-10-09T05:34:45.626Z,83.52
2022-10-09T05:37:15.301Z,82.61
2022-10-09T05:39:45.209Z,83.44
2022-10-09T05:42:14.890Z,83.03
2022-10-09T05:44:47.162Z,82.36
2022-10-09T05:47:18.128Z,82.87
2022-10-09T05:49:48.103Z,82.43
2022-10-09T05:52:17.778Z,82.35
2022-10-09T05:54:47.456Z,82.51
2022-10-09T05:57:17.176Z,83.28
2022-10-09T05:59:49.429Z,83.34
2022-10-09T06:02:19.121Z,83.94
2022-10-09T06:04:48.771Z,83.87
2022-10-09T06:07:18.659Z,83.37
2022-10-09T06:09:48.331Z,83.54
2022-10-09T06:12:18.020Z,83.26
2022-10-09T06:14:50.314Z,83.53
2022-10-09T06:17:20.064Z,83.12
2022-10-09T06:19:49.894Z,82.72
2022-10-09T06:22:19.624Z,82.06
2022-10-09T06:24:49.340Z,82.91
2022-10-09T06:27:19.170Z,82.98
2022-10-09T06:29:53.512Z,83.03
2022-10-09T06:32:23.192Z,83.35
2022-10-09T06:34:53.702Z,84.16
2022-10-09T06:37:23.453Z,84.18
2022-10-09T06:39:53.168Z,84.67
2022-10-09T06:42:22.851Z,85.00
2022-10-09T06:44:55.185Z,84.42
2022-10-09T06:47:24.882Z,84.33
2022-10-09T06:49:54.573Z,83.93
2022-10-09T06:52:24.261Z,81.39
2022-10-09T06:54:54.067Z,71.98
2022-10-09T06:57:23.777Z,68.79
2022-10-09T06:59:56.065Z,67.93
2022-10-09T07:02:25.752Z,64.84
2022-10-09T07:04:55.510Z,60.61
2022-10-09T07:07:25.287Z,56.69
2022-10-09T07:09:55.199Z,52.71
2022-10-09T07:12:24.863Z,50.28
2022-10-09T07:14:57.310Z,53.47
2022-10-09T07:17:27.041Z,56.98
2022-10-09T07:19:56.741Z,58.30
2022-10-09T07:22:27.223Z,54.94
2022-10-09T07:24:57.069Z,52.04
2022-10-09T07:27:26.817Z,49.13
2022-10-09T07:30:00.450Z,48.65
2022-10-09T07:32:30.240Z,47.58
2022-10-09T07:34:59.929Z,47.34
2022-10-09T07:37:29.607Z,45.59
2022-10-09T07:39:59.294Z,44.61
2022-10-09T07:42:29.026Z,43.77
2022-10-09T07:45:01.373Z,43.59
2022-10-09T07:47:31.072Z,45.48
2022-10-09T07:50:00.845Z,48.88
2022-10-09T07:52:30.610Z,48.95
2022-10-09T07:55:00.414Z,52.11
2022-10-09T07:57:30.212Z,51.66
2022-10-09T08:00:02.565Z,52.71
2022-10-09T08:02:33.567Z,53.72
2022-10-09T08:05:03.349Z,56.42
2022-10-09T08:07:35.018Z,57.21
2022-10-09T08:10:04.866Z,57.55
2022-10-09T08:12:34.681Z,59.16
2022-10-09T08:15:07.719Z,60.92
2022-10-09T08:17:37.400Z,62.00
2022-10-09T08:20:08.244Z,62.52
2022-10-09T08:22:37.969Z,64.32
2022-10-09T08:25:09.007Z,65.59
2022-10-09T08:27:38.699Z,64.51
2022-10-09T08:30:12.124Z,63.50
2022-10-09T08:32:42.548Z,61.33
2022-10-09T08:35:12.516Z,59.91
2022-10-09T08:37:42.793Z,61.56
2022-10-09T08:40:19.059Z,62.34
2022-10-09T08:42:56.219Z,62.56
2022-10-09T08:45:28.673Z,61.99
2022-10-09T08:48:02.401Z,59.11
2022-10-09T08:50:36.097Z,58.32
2022-10-09T08:53:13.685Z,59.92
2022-10-09T08:55:48.474Z,57.21
2022-10-09T08:58:19.970Z,56.95
2022-10-09T09:00:56.259Z,56.56
2022-10-09T09:03:56.062Z,55.94
2022-10-09T09:06:34.660Z,55.71
2022-10-09T09:09:14.909Z,57.37
2022-10-09T09:11:52.690Z,56.80
2022-10-09T09:14:40.312Z,55.95
2022-10-09T09:17:22.132Z,55.63
2022-10-09T09:20:06.880Z,54.94
2022-10-09T09:22:37.318Z,55.21
2022-10-09T09:25:20.318Z,55.08
2022-10-09T09:27:50.652Z,55.36
2022-10-09T09:30:26.046Z,55.10
2022-10-09T09:33:04.861Z,52.96
2022-10-09T09:35:46.967Z,52.14
2022-10-09T09:38:17.262Z,51.42
2022-10-09T09:40:47.783Z,51.41
2022-10-09T09:43:22.554Z,52.39
2022-10-09T09:45:56.058Z,51.76
2022-10-09T09:48:35.054Z,51.02
2022-10-09T09:51:27.449Z,50.72
2022-10-09T09:53:59.722Z,49.09
2022-10-09T09:57:07.086Z,50.14
2022-10-09T09:59:35.767Z,51.30
2022-10-09T10:02:14.364Z,49.63
2022-10-09T10:04:56.729Z,49.38
2022-10-09T10:07:34.142Z,48.09
2022-10-09T10:10:21.027Z,49.09
2022-10-09T10:12:57.959Z,48.62
2022-10-09T10:15:29.557Z,48.09
2022-10-09T10:18:04.587Z,46.90
2022-10-09T10:20:46.481Z,44.69
2022-10-09T10:23:26.437Z,45.53
2022-10-09T10:25:59.889Z,42.49
2022-10-09T10:28:35.028Z,39.96
2022-10-09T10:31:08.723Z,40.27
2022-10-09T10:33:40.823Z,39.00
2022-10-09T10:36:14.693Z,38.63
2022-10-09T10:38:52.731Z,37.25
2022-10-09T10:41:26.996Z,36.98
2022-10-09T10:44:01.508Z,36.05
2022-10-09T10:46:34.814Z,35.21
2022-10-09T10:49:04.833Z,36.76
2022-10-09T10:51:53.920Z,35.19
2022-10-09T10:54:38.186Z,35.50
2022-10-09T10:57:17.596Z,34.46
2022-10-09T11:00:00.494Z,34.20
2022-10-09T11:02:55.997Z,33.39
2022-10-09T11:05:37.241Z,30.76
2022-10-09T11:08:34.211Z,31.35
2022-10-09T11:11:11.543Z,30.92
2022-10-09T11:13:50.199Z,33.38
2022-10-09T11:16:33.010Z,32.12
2022-10-09T11:19:22.909Z,33.72
2022-10-09T11:22:01.647Z,32.35
2022-10-09T11:25:01.411Z,33.30
2022-10-09T11:27:47.179Z,33.13
2022-10-09T11:30:19.460Z,32.89
2022-10-09T11:32:58.669Z,31.19
2022-10-09T11:35:32.403Z,31.86
2022-10-09T11:38:07.923Z,32.56
2022-10-09T11:40:45.315Z,34.65
2022-10-09T11:43:36.428Z,34.64
2022-10-09T11:46:11.439Z,36.34
2022-10-09T11:48:50.177Z,37.68
2022-10-09T11:51:26.188Z,37.54
2022-10-09T11:53:57.166Z,38.61
2022-10-09T11:56:32.229Z,38.91
2022-10-09T11:59:04.025Z,40.73
2022-10-09T12:01:37.218Z,39.83
2022-10-09T12:04:11.724Z,39.32
2022-10-09T12:06:49.811Z,40.72
2022-10-09T12:09:25.648Z,40.57
2022-10-09T12:12:07.312Z,41.63
2022-10-09T12:14:38.977Z,41.74
2022-10-09T12:17:19.412Z,41.86
2022-10-09T12:19:49.322Z,41.08
2022-10-09T12:22:23.691Z,41.20
2022-10-09T12:24:54.820Z,41.80
2022-10-09T12:27:29.900Z,41.28
2022-10-09T12:30:03.008Z,41.08
2022-10-09T12:32:36.335Z,41.95
2022-10-09T12:35:17.590Z,41.51
2022-10-09T12:37:47.327Z,41.51
2022-10-09T12:40:19.765Z,41.41
2022-10-09T12:42:54.114Z,41.30
2022-10-09T12:45:27.014Z,42.17
2022-10-09T12:47:57.516Z,41.56
2022-10-09T12:50:30.490Z,42.46
2022-10-09T12:53:02.197Z,42.64
2022-10-09T12:55:34.672Z,42.53
2022-10-09T12:58:10.725Z,43.51
2022-10-09T13:00:40.684Z,45.06
2022-10-09T13:03:25.496Z,44.55
2022-10-09T13:05:55.740Z,44.68
2022-10-09T13:08:28.762Z,44.49
2022-10-09T13:11:10.489Z,44.46
2022-10-09T13:13:43.477Z,44.68
2022-10-09T13:16:13.273Z,44.48
2022-10-09T13:18:43.044Z,43.89
2022-10-09T13:21:24.857Z,43.67
2022-10-09T13:23:54.492Z,43.89
2022-10-09T13:26:28.501Z,43.81
2022-10-09T13:29:03.833Z,43.54
2022-10-09T13:31:33.957Z,43.98
2022-10-09T13:34:04.297Z,43.81
2022-10-09T13:36:34.046Z,43.55
2022-10-09T13:39:03.622Z,44.06
2022-10-09T13:41:34.256Z,44.61
2022-10-09T13:44:06.514Z,45.42
2022-10-09T13:46:36.238Z,45.15
2022-10-09T13:49:05.891Z,46.10
2022-10-09T13:51:36.293Z,44.91
2022-10-09T13:54:06.406Z,45.63
2022-10-09T13:56:36.159Z,45.27
2022-10-09T13:59:08.434Z,45.72
2022-10-09T14:01:38.185Z,45.86
2022-10-09T14:04:07.914Z,45.72
2022-10-09T14:06:38.664Z,45.29
2022-10-09T14:09:09.007Z,44.76
2022-10-09T14:11:39.019Z,44.88
2022-10-09T14:14:11.294Z,45.02
2022-10-09T14:16:40.912Z,44.90
2022-10-09T14:19:10.524Z,46.18
2022-10-09T14:21:40.448Z,46.11
2022-10-09T14:24:10.272Z,46.90
2022-10-09T14:26:41.419Z,46.99
2022-10-09T14:29:14.000Z,47.04
2022-10-09T14:31:43.774Z,48.03
2022-10-09T14:34:16.040Z,48.31
2022-10-09T14:36:45.740Z,48.81
2022-10-09T14:39:15.523Z,48.88
2022-10-09T14:41:45.988Z,48.97
2022-10-09T14:44:18.204Z,48.73
2022-10-09T14:46:47.827Z,48.39
2022-10-09T14:49:17.596Z,48.23
2022-10-09T14:51:47.290Z,48.75
2022-10-09T14:54:16.918Z,48.80
2022-10-09T14:56:46.480Z,49.20
2022-10-09T14:59:18.723Z,48.70
2022-10-09T15:01:48.509Z,49.03
2022-10-09T15:04:18.246Z,48.96
2022-10-09T15:06:48.024Z,49.09
2022-10-09T15:09:17.690Z,49.59
2022-10-09T15:11:47.419Z,49.27
2022-10-09T15:14:19.704Z,49.51
2022-10-09T15:16:49.835Z,50.00
2022-10-09T15:19:19.495Z,49.92
2022-10-09T15:21:49.215Z,49.77
2022-10-09T15:24:18.934Z,50.09
2022-10-09T15:26:48.661Z,50.60
2022-10-09T15:29:20.899Z,50.55
2022-10-09T15:31:53.687Z,50.95
2022-10-09T15:34:23.601Z,51.24
2022-10-09T15:36:53.195Z,51.68
2022-10-09T15:39:23.754Z,51.62
2022-10-09T15:41:53.391Z,51.60
2022-10-09T15:44:25.591Z,52.07
2022-10-09T15:46:55.216Z,52.58
2022-10-09T15:49:24.885Z,53.08
2022-10-09T15:51:54.466Z,53.52
2022-10-09T15:54:24.228Z,53.96
2022-10-09T15:56:54.665Z,54.57
2022-10-09T15:59:30.100Z,56.60
2022-10-09T16:01:59.809Z,58.07
2022-10-09T16:04:31.205Z,57.94
2022-10-09T16:07:00.925Z,58.96
2022-10-09T16:09:35.008Z,59.51
2022-10-09T16:12:05.379Z,60.35
2022-10-09T16:14:38.466Z,60.73
2022-10-09T16:17:11.231Z,60.81
2022-10-09T16:19:41.455Z,60.94
2022-10-09T16:22:11.127Z,61.32
2022-10-09T16:24:40.806Z,61.62
2022-10-09T16:27:10.443Z,62.09
2022-10-09T16:29:45.848Z,63.12
2022-10-09T16:32:16.832Z,63.15
2022-10-09T16:34:46.482Z,63.16
2022-10-09T16:37:16.108Z,63.78
2022-10-09T16:39:45.762Z,63.83
2022-10-09T16:42:15.377Z,64.08
2022-10-09T16:44:48.209Z,64.36
2022-10-09T16:47:17.884Z,64.15
2022-10-09T16:49:47.597Z,65.01
2022-10-09T16:52:17.283Z,66.24
2022-10-09T16:54:47.576Z,66.29
2022-10-09T16:57:20.169Z,67.30
2022-10-09T16:59:52.455Z,66.69
2022-10-09T17:02:22.152Z,65.74
2022-10-09T17:04:51.788Z,66.47
2022-10-09T17:07:23.244Z,66.67
2022-10-09T17:09:54.245Z,66.59
2022-10-09T17:12:23.961Z,67.49
2022-10-09T17:14:57.819Z,66.82
2022-10-09T17:17:27.554Z,66.49
2022-10-09T17:19:57.248Z,66.44
2022-10-09T17:22:26.952Z,66.26
2022-10-09T17:24:57.669Z,66.84
2022-10-09T17:27:27.317Z,66.76
2022-10-09T17:29:59.598Z,67.39
2022-10-09T17:32:29.321Z,67.70
2022-10-09T17:34:59.089Z,67.94
2022-10-09T17:37:28.920Z,68.14
2022-10-09T17:39:58.637Z,67.56
2022-10-09T17:42:28.345Z,68.05
2022-10-09T17:45:00.703Z,68.46
2022-10-09T17:47:30.695Z,68.58
2022-10-09T17:50:00.418Z,68.56
2022-10-09T17:52:30.071Z,68.79
2022-10-09T17:54:59.720Z,68.36
2022-10-09T17:57:32.258Z,68.61
2022-10-09T18:00:04.531Z,69.62
2022-10-09T18:02:34.228Z,69.81
2022-10-09T18:05:07.059Z,69.22
2022-10-09T18:07:36.768Z,70.19
2022-10-09T18:10:07.370Z,70.23
2022-10-09T18:12:37.396Z,71.51
2022-10-09T18:15:12.119Z,71.64
2022-10-09T18:17:42.618Z,72.19
2022-10-09T18:20:12.697Z,72.55
2022-10-09T18:22:43.460Z,73.43
2022-10-09T18:25:13.184Z,73.45
2022-10-09T18:27:48.895Z,73.17
2022-10-09T18:30:21.514Z,73.80
2022-10-09T18:32:51.976Z,73.65
2022-10-09T18:35:22.015Z,74.36
2022-10-09T18:37:56.529Z,74.38
2022-10-09T18:40:26.293Z,73.68
2022-10-09T18:42:56.152Z,72.85
2022-10-09T18:45:28.692Z,74.23
2022-10-09T18:47:58.594Z,73.86
2022-10-09T18:50:28.417Z,74.12
2022-10-09T18:52:58.349Z,74.91
2022-10-09T18:55:28.145Z,74.92
2022-10-09T18:58:00.973Z,74.61
2022-10-09T19:00:37.221Z,75.02
2022-10-09T19:03:07.460Z,73.95
2022-10-09T19:05:37.222Z,75.05
2022-10-09T19:08:06.952Z,75.95
2022-10-09T19:10:36.670Z,76.16
2022-10-09T19:13:06.576Z,76.98
2022-10-09T19:15:42.935Z,76.62
2022-10-09T19:18:12.609Z,75.77
2022-10-09T19:20:42.399Z,76.25
2022-10-09T19:23:14.700Z,77.55
2022-10-09T19:25:51.217Z,77.71
2022-10-09T19:28:22.000Z,77.27
2022-10-09T19:30:54.929Z,78.56
2022-10-09T19:33:24.667Z,77.87
2022-10-09T19:35:56.372Z,78.27
2022-10-09T19:38:27.519Z,78.14
2022-10-09T19:40:57.605Z,78.69
2022-10-09T19:43:28.095Z,79.87
2022-10-09T19:46:07.781Z,80.09
2022-10-09T19:48:38.268Z,81.30
2022-10-09T19:51:10.032Z,81.67
2022-10-09T19:53:40.446Z,81.09
2022-10-09T19:56:13.507Z,80.82
2022-10-09T19:58:43.758Z,80.95
2022-10-09T20:01:17.446Z,79.97
2022-10-09T20:03:47.605Z,81.13
2022-10-09T20:06:18.179Z,81.24
2022-10-09T20:08:47.978Z,81.35
2022-10-09T20:11:20.354Z,81.73
2022-10-09T20:13:56.017Z,81.34
2022-10-09T20:16:32.187Z,80.98
2022-10-09T20:19:02.798Z,80.66
2022-10-09T20:21:33.390Z,81.37
2022-10-09T20:24:03.454Z,81.82
2022-10-09T20:26:40.926Z,81.70
2022-10-09T20:29:12.592Z,81.61
2022-10-09T20:31:44.876Z,81.95
2022-10-09T20:34:14.539Z,82.28
2022-10-09T20:36:44.710Z,82.54
2022-10-09T20:39:16.883Z,83.39
2022-10-09T20:41:46.568Z,83.00
2022-10-09T20:44:16.622Z,83.30
2022-10-09T20:46:48.951Z,84.77
2022-10-09T20:49:18.831Z,84.44
2022-10-09T20:51:48.461Z,83.58
2022-10-09T20:54:21.343Z,84.07
2022-10-09T20:56:52.203Z,85.65
2022-10-09T20:59:21.971Z,86.10
2022-10-09T21:01:54.224Z,85.70
2022-10-09T21:04:23.900Z,85.65
2022-10-09T21:06:53.519Z,86.23
2022-10-09T21:09:23.177Z,85.39
2022-10-09T21:11:52.902Z,85.55
2022-10-09T21:14:22.672Z,84.57
2022-10-09T21:16:55.009Z,84.73
2022-10-09T21:19:24.618Z,85.00
2022-10-09T21:21:54.322Z,84.68
2022-10-09T21:24:25.084Z,83.61
2022-10-09T21:26:54.760Z,82.18
2022-10-09T21:29:24.483Z,81.81
2022-10-09T21:31:56.903Z,81.32
2022-10-09T21:34:26.577Z,81.90
2022-10-09T21:39:47.802Z,80.83
2022-10-09T21:42:17.515Z,81.26
2022-10-09T21:44:47.256Z,80.54
2022-10-09T21:47:24.810Z,80.17
2022-10-09T21:49:54.551Z,80.11
2022-10-09T21:52:24.242Z,79.72
2022-10-09T21:54:53.900Z,80.11
2022-10-09T21:57:23.595Z,79.74
2022-10-09T21:59:53.327Z,78.86
2022-10-09T22:02:25.617Z,78.13
2022-10-09T22:04:57.361Z,78.31
2022-10-09T22:07:30.361Z,78.46
2022-10-09T22:10:00.087Z,78.15
2022-10-09T22:12:29.903Z,78.66
2022-10-09T22:14:59.612Z,78.64
2022-10-09T22:17:31.882Z,78.43
2022-10-09T22:20:01.565Z,78.45
2022-10-09T22:22:31.198Z,78.22
2022-10-09T22:25:00.974Z,78.40
2022-10-09T22:27:30.653Z,79.52
2022-10-09T22:30:00.311Z,79.11
2022-10-09T22:32:32.601Z,79.13
2022-10-09T22:35:02.256Z,78.86
2022-10-09T22:37:31.932Z,78.95
2022-10-09T22:40:01.610Z,79.41
2022-10-09T22:42:31.283Z,79.37
2022-10-09T22:45:00.912Z,79.44
2022-10-09T22:47:33.191Z,78.97
2022-10-09T22:50:02.896Z,79.60
2022-10-09T22:52:32.560Z,79.60
2022-10-09T22:55:03.623Z,79.41
2022-10-09T22:57:33.299Z,79.93
2022-10-09T23:00:02.975Z,80.37
2022-10-09T23:02:35.232Z,80.17
2022-10-09T23:05:05.100Z,80.38
2022-10-09T23:07:34.723Z,79.11
2022-10-09T23:10:04.519Z,80.43
2022-10-09T23:12:34.196Z,80.64
2022-10-09T23:15:03.815Z,80.38
2022-10-09T23:17:36.126Z,81.52
2022-10-09T23:20:06.046Z,81.59
2022-10-09T23:22:35.768Z,81.13
2022-10-09T23:25:05.636Z,81.00
2022-10-09T23:27:35.276Z,80.95
2022-10-09T23:30:04.907Z,81.04
2022-10-09T23:32:37.191Z,80.87
2022-10-09T23:35:07.611Z,81.09
2022-10-09T23:37:37.398Z,81.28
2022-10-09T23:40:07.776Z,81.36
2022-10-09T23:42:37.828Z,82.11
2022-10-09T23:45:08.644Z,82.27
2022-10-09T23:47:40.993Z,81.73
2022-10-09T23:50:11.004Z,82.58
2022-10-09T23:52:40.694Z,82.46
2022-10-09T23:55:11.216Z,83.31
2022-10-09T23:57:40.860Z,82.59
